Time;durP1;ratioP1;P1;durP2;ratioP2;P2;SDS_P1;SDS_P2;PMS_P1;PMS_P2;Temp;Humidity;BMP_temperature;BMP_pressure;BME280_temperature;BME280_humidity;BME280_pressure;Samples;Min_cycle;Max_cycle;Signal;HPM_P1;HPM_P2
2022/04/10 00:00:23;;;;;;;;;;;;;;;20.35;42.84;100632.50;4980271;28;4285;-53
2022/04/10 00:02:49;;;;;;;;;;;;;;;20.36;42.97;100636.84;4978307;28;4267;-53
2022/04/10 00:05:16;;;;;;;;;;;;;;;20.38;43.00;100642.69;4978519;28;5518;-53
2022/04/10 00:07:42;;;;;;;;;;;;;;;20.37;43.08;100644.09;4978755;28;4188;-53
2022/04/10 00:10:09;;;;;;;;;;;;;;;20.35;42.99;100649.75;4977718;28;4248;-53
2022/04/10 00:12:35;;;;;;;;;;;;;;;20.34;43.09;100642.53;4977307;28;4242;-55
2022/04/10 00:15:02;;;;;;;;;;;;;;;20.37;43.05;100641.22;4979169;28;6387;-53
2022/04/10 00:17:29;;;;;;;;;;;;;;;20.35;42.98;100649.03;4975577;28;4258;-55
2022/04/10 00:19:55;;;;;;;;;;;;;;;20.38;42.93;100650.59;4977887;28;4252;-54
2022/04/10 00:22:21;;;;;;;;;;;;;;;20.36;43.00;100651.22;4979482;28;5553;-52
2022/04/10 00:24:48;;;;;;;;;;;;;;;20.35;43.13;100644.00;4976980;28;4281;-54
2022/04/10 00:27:14;;;;;;;;;;;;;;;20.37;42.96;100644.09;4977258;28;4395;-53
2022/04/10 00:29:41;;;;;;;;;;;;;;;20.36;42.93;100645.47;4975012;28;4173;-55
2022/04/10 00:32:08;;;;;;;;;;;;;;;20.36;42.96;100633.25;4974985;28;4920;-53
2022/04/10 00:34:34;;;;;;;;;;;;;;;20.35;42.91;100637.53;4976253;28;4241;-56
2022/04/10 00:37:00;;;;;;;;;;;;;;;20.36;42.95;100644.75;4980234;28;4225;-54
2022/04/10 00:39:27;;;;;;;;;;;;;;;20.36;42.87;100645.47;4963079;28;4273;-52
2022/04/10 00:41:53;;;;;;;;;;;;;;;20.34;42.99;100651.16;4976095;28;5319;-54
2022/04/10 00:44:20;;;;;;;;;;;;;;;20.38;42.90;100642.69;4975326;28;4313;-52
2022/04/10 00:46:49;;;;;;;;;;;;;;;20.39;42.91;100652.81;4975742;28;5466;-53
2022/04/10 00:49:15;;;;;;;;;;;;;;;20.37;43.05;100652.00;4978926;28;4223;-53
2022/04/10 00:51:43;;;;;;;;;;;;;;;20.37;43.10;100655.59;4979437;28;5299;-54
2022/04/10 00:54:14;;;;;;;;;;;;;;;20.35;43.14;100661.25;4979600;28;4206;-54
2022/04/10 00:56:40;;;;;;;;;;;;;;;20.36;43.09;100651.22;4973105;28;4435;-52
2022/04/10 00:59:06;;;;;;;;;;;;;;;20.33;43.32;100652.53;4960334;28;4328;-56
2022/04/10 01:01:33;;;;;;;;;;;;;;;20.34;43.14;100647.53;4978914;28;4217;-55
2022/04/10 01:04:19;;;;;;;;;;;;;;;20.36;43.30;100650.50;4975860;28;5405;-55
2022/04/10 01:06:47;;;;;;;;;;;;;;;20.35;43.12;100649.75;4977902;28;4381;-53
2022/04/10 01:09:15;;;;;;;;;;;;;;;20.37;43.03;100655.59;4974655;28;4201;-54
2022/04/10 01:11:41;;;;;;;;;;;;;;;20.35;43.01;100655.50;4974005;28;4253;-54
2022/04/10 01:14:09;;;;;;;;;;;;;;;20.35;42.98;100661.25;4971773;28;4381;-53
2022/04/10 01:16:38;;;;;;;;;;;;;;;20.33;43.04;100661.19;4977954;28;5268;-55
2022/04/10 01:19:06;;;;;;;;;;;;;;;20.32;43.07;100662.59;4971765;28;4172;-54
2022/04/10 01:21:38;;;;;;;;;;;;;;;20.32;42.99;100665.47;4957841;28;4281;-54
2022/04/10 01:24:06;;;;;;;;;;;;;;;20.34;43.00;100665.53;4960970;28;5578;-52
2022/04/10 01:26:33;;;;;;;;;;;;;;;20.36;43.10;100662.00;4957740;28;4320;-51
2022/04/10 01:29:00;;;;;;;;;;;;;;;20.37;43.25;100669.97;4970146;28;4645;-54
2022/04/10 01:31:29;;;;;;;;;;;;;;;20.36;43.16;100662.00;4969870;28;4189;-53
2022/04/10 01:34:01;;;;;;;;;;;;;;;20.34;43.25;100659.78;4961612;28;4088;-53
2022/04/10 01:36:29;;;;;;;;;;;;;;;20.34;42.93;100665.53;4973718;28;4243;-55
2022/04/10 01:38:56;;;;;;;;;;;;;;;20.32;43.17;100679.84;4974049;28;4330;-53
2022/04/10 01:41:25;;;;;;;;;;;;;;;20.32;43.12;100673.31;4976905;28;4100;-53
2022/04/10 01:43:53;;;;;;;;;;;;;;;20.34;43.22;100671.28;4975025;28;5333;-54
2022/04/10 01:46:21;;;;;;;;;;;;;;;20.33;43.10;100675.56;4974292;28;4212;-54
2022/04/10 01:48:48;;;;;;;;;;;;;;;20.36;43.02;100667.75;4970868;28;4294;-55
2022/04/10 01:51:15;;;;;;;;;;;;;;;20.33;43.08;100675.56;4971713;28;4301;-53
2022/04/10 01:53:41;;;;;;;;;;;;;;;20.33;43.07;100675.56;4973911;28;4310;-55
2022/04/10 01:56:08;;;;;;;;;;;;;;;20.30;42.98;100674.00;4971947;28;4234;-55
2022/04/10 01:58:35;;;;;;;;;;;;;;;20.29;43.01;100675.38;4978580;28;5141;-53
2022/04/10 02:01:02;;;;;;;;;;;;;;;20.30;42.98;100683.34;4975077;28;4515;-54
2022/04/10 02:03:29;;;;;;;;;;;;;;;20.32;43.10;100679.06;4974289;28;4171;-54
2022/04/10 02:05:55;;;;;;;;;;;;;;;20.33;43.04;100684.19;4975713;28;4150;-53
2022/04/10 02:08:23;;;;;;;;;;;;;;;20.33;43.09;100675.56;4973926;28;4360;-52
2022/04/10 02:10:49;;;;;;;;;;;;;;;20.32;43.08;100674.09;4972166;28;4058;-51
2022/04/10 02:13:16;;;;;;;;;;;;;;;20.30;43.13;100676.88;4973685;28;4288;-53
2022/04/10 02:15:43;;;;;;;;;;;;;;;20.31;43.10;100684.09;4974397;28;4330;-53
2022/04/10 02:18:09;;;;;;;;;;;;;;;20.32;43.11;100673.31;4959206;28;4241;-50
2022/04/10 02:20:36;;;;;;;;;;;;;;;20.33;43.12;100684.19;4969322;28;4264;-53
2022/04/10 02:23:02;;;;;;;;;;;;;;;20.34;42.99;100677.06;4974809;28;4097;-54
2022/04/10 02:25:28;;;;;;;;;;;;;;;20.32;43.06;100679.84;4975873;28;4235;-55
2022/04/10 02:27:55;;;;;;;;;;;;;;;20.35;43.02;100678.50;4978097;28;4425;-54
2022/04/10 02:30:22;;;;;;;;;;;;;;;20.31;43.00;100678.34;4975933;28;5205;-54
2022/04/10 02:32:48;;;;;;;;;;;;;;;20.32;43.11;100670.44;4974848;28;4083;-52
2022/04/10 02:35:15;;;;;;;;;;;;;;;20.31;42.98;100678.34;4974723;28;5379;-53
2022/04/10 02:37:45;;;;;;;;;;;;;;;20.30;42.98;100676.88;4975403;28;4272;-52
2022/04/10 02:40:14;;;;;;;;;;;;;;;20.28;43.01;100668.16;4972951;28;4278;-54
2022/04/10 02:42:40;;;;;;;;;;;;;;;20.27;43.09;100684.66;4975909;28;5480;-53
2022/04/10 02:45:07;;;;;;;;;;;;;;;20.28;43.07;100674.63;4965098;28;4172;-53
2022/04/10 02:47:33;;;;;;;;;;;;;;;20.33;43.06;100692.06;4974688;28;4198;-53
2022/04/10 02:50:00;;;;;;;;;;;;;;;20.34;43.15;100682.81;4969965;28;4088;-53
2022/04/10 02:52:28;;;;;;;;;;;;;;;20.35;43.13;100681.41;4956184;28;5395;-52
2022/04/10 02:54:54;;;;;;;;;;;;;;;20.40;43.15;100685.91;4972456;28;4972;-54
2022/04/10 02:57:21;;;;;;;;;;;;;;;20.39;43.31;100689.47;4976278;28;4161;-54
2022/04/10 02:59:47;;;;;;;;;;;;;;;20.39;43.22;100686.59;4975214;28;4316;-53
2022/04/10 03:02:14;;;;;;;;;;;;;;;20.41;43.23;100675.16;4970423;28;5529;-53
2022/04/10 03:04:42;;;;;;;;;;;;;;;20.39;43.26;100687.31;4975750;28;5363;-54
2022/04/10 03:07:08;;;;;;;;;;;;;;;20.39;43.41;100684.44;4976533;28;5128;-53
2022/04/10 03:09:35;;;;;;;;;;;;;;;20.40;43.22;100685.91;4971583;28;5388;-52
2022/04/10 03:12:04;;;;;;;;;;;;;;;20.39;43.18;100692.34;4975856;28;5310;-55
2022/04/10 03:14:33;;;;;;;;;;;;;;;20.39;43.24;100695.22;4971843;28;4308;-51
2022/04/10 03:16:59;;;;;;;;;;;;;;;20.35;43.30;100690.03;4957570;28;4290;-53
2022/04/10 03:19:26;;;;;;;;;;;;;;;20.38;43.16;100694.47;4972239;28;5827;-55
2022/04/10 03:21:52;;;;;;;;;;;;;;;20.38;43.17;100699.47;4969751;28;4277;-52
2022/04/10 03:24:19;;;;;;;;;;;;;;;20.37;43.37;100693.00;4976026;28;4259;-55
2022/04/10 03:26:45;;;;;;;;;;;;;;;20.38;43.19;100697.34;4973630;28;5183;-55
2022/04/10 03:29:12;;;;;;;;;;;;;;;20.39;43.28;100701.72;4977029;28;4190;-56
2022/04/10 03:31:40;;;;;;;;;;;;;;;20.35;43.47;100701.53;4960404;28;4363;-55
2022/04/10 03:34:07;;;;;;;;;;;;;;;20.38;43.35;100700.22;4962533;28;4243;-53
2022/04/10 03:36:33;;;;;;;;;;;;;;;20.38;43.37;100705.22;4978668;28;4186;-53
2022/04/10 03:39:00;;;;;;;;;;;;;;;20.36;43.59;100699.38;4962378;28;4300;-53
2022/04/10 03:41:27;;;;;;;;;;;;;;;20.35;43.69;100706.53;4976409;28;4230;-54
2022/04/10 03:43:54;;;;;;;;;;;;;;;20.38;43.62;100711.72;4975700;28;4265;-55
2022/04/10 03:46:20;;;;;;;;;;;;;;;20.34;43.61;100723.06;4976418;28;4194;-54
2022/04/10 03:48:47;;;;;;;;;;;;;;;20.38;43.44;100726.09;4976646;28;4305;-51
2022/04/10 03:51:14;;;;;;;;;;;;;;;20.40;43.37;100717.56;4958534;28;4223;-52
2022/04/10 03:53:41;;;;;;;;;;;;;;;20.42;43.26;100717.66;4974680;28;4198;-53
2022/04/10 03:56:09;;;;;;;;;;;;;;;20.40;43.46;100726.19;4975552;28;4196;-54
2022/04/10 03:58:37;;;;;;;;;;;;;;;20.41;43.24;100730.56;4977570;28;4966;-55
2022/04/10 04:01:03;;;;;;;;;;;;;;;20.41;43.28;100733.44;4961072;28;5306;-52
2022/04/10 04:03:30;;;;;;;;;;;;;;;20.42;43.46;100734.91;4977130;28;4270;-52
2022/04/10 04:05:56;;;;;;;;;;;;;;;20.42;43.43;100737.78;4974955;28;4181;-55
2022/04/10 04:08:23;;;;;;;;;;;;;;;20.43;43.44;100745.03;4975688;28;4307;-53
2022/04/10 04:10:51;;;;;;;;;;;;;;;20.52;43.42;100749.00;4977585;28;4088;-53
2022/04/10 04:13:19;;;;;;;;;;;;;;;20.45;43.41;100750.84;4972885;28;4218;-53
2022/04/10 04:15:46;;;;;;;;;;;;;;;20.44;43.35;100757.28;4976065;28;4244;-54
2022/04/10 04:18:13;;;;;;;;;;;;;;;20.41;43.41;100758.56;4977991;28;4181;-55
2022/04/10 04:20:40;;;;;;;;;;;;;;;20.40;43.33;100760.69;4975912;28;4382;-55
2022/04/10 04:23:06;;;;;;;;;;;;;;;20.41;43.21;100762.19;4973945;28;4253;-55
2022/04/10 04:25:33;;;;;;;;;;;;;;;20.40;43.28;100759.97;4975308;28;5303;-54
2022/04/10 04:28:01;;;;;;;;;;;;;;;20.37;43.60;100767.75;4975920;28;4895;-54
2022/04/10 04:30:28;;;;;;;;;;;;;;;20.40;43.41;100777.94;4975521;28;5588;-52
2022/04/10 04:33:00;;;;;;;;;;;;;;;20.41;43.40;100784.44;4976133;28;4073;-52
2022/04/10 04:35:27;;;;;;;;;;;;;;;20.39;43.36;100781.50;4975032;28;5437;-53
2022/04/10 04:37:55;;;;;;;;;;;;;;;20.35;43.43;100782.03;4976699;28;4201;-53
2022/04/10 04:40:22;;;;;;;;;;;;;;;20.37;43.30;100785.00;4979582;28;4223;-55
2022/04/10 04:42:50;;;;;;;;;;;;;;;20.37;43.38;100787.91;4975766;28;4269;-52
2022/04/10 04:45:18;;;;;;;;;;;;;;;20.38;43.34;100786.50;4976157;28;4204;-51
2022/04/10 04:47:58;;;;;;;;;;;;;;;20.39;43.24;100788.00;4959062;28;5258;-53
2022/04/10 04:50:24;;;;;;;;;;;;;;;20.41;43.35;100790.97;4976211;28;4198;-54
2022/04/10 04:52:52;;;;;;;;;;;;;;;20.42;43.13;100792.44;4956282;28;4184;-52
2022/04/10 04:55:19;;;;;;;;;;;;;;;20.42;43.29;100791.69;4960968;28;4242;-53
2022/04/10 04:57:46;;;;;;;;;;;;;;;20.44;43.36;100798.28;4977515;28;4075;-52
2022/04/10 05:00:13;;;;;;;;;;;;;;;20.47;43.37;100794.09;4978478;28;5513;-54
2022/04/10 05:02:46;;;;;;;;;;;;;;;20.45;43.41;100799.75;4974799;28;5391;-54
2022/04/10 05:05:13;;;;;;;;;;;;;;;20.44;43.36;100795.41;4973321;28;4176;-53
2022/04/10 05:07:40;;;;;;;;;;;;;;;20.43;43.52;100793.94;4970770;28;4364;-56
2022/04/10 05:10:07;;;;;;;;;;;;;;;20.45;43.52;100799.75;4975621;28;4281;-56
2022/04/10 05:12:36;;;;;;;;;;;;;;;20.41;43.62;100808.22;4960264;28;4254;-54
2022/04/10 05:15:08;;;;;;;;;;;;;;;20.43;43.41;100814.06;4960571;28;4309;-53
2022/04/10 05:17:38;;;;;;;;;;;;;;;20.43;43.44;100822.69;4958924;28;5313;-55
2022/04/10 05:20:07;;;;;;;;;;;;;;;20.43;43.52;100821.94;4974746;28;4216;-59
2022/04/10 05:22:39;;;;;;;;;;;;;;;20.43;43.34;100822.69;4961113;28;4457;-52
2022/04/10 05:25:08;;;;;;;;;;;;;;;20.43;43.43;100831.31;4975462;28;4034;-54
2022/04/10 05:27:36;;;;;;;;;;;;;;;20.41;43.49;100831.22;4975515;28;4265;-52
2022/04/10 05:30:03;;;;;;;;;;;;;;;20.42;43.32;100832.69;4975702;28;4195;-53
2022/04/10 05:32:29;;;;;;;;;;;;;;;20.41;43.19;100836.22;4978141;28;4232;-51
2022/04/10 05:34:56;;;;;;;;;;;;;;;20.40;43.36;100844.09;4962992;28;4081;-52
2022/04/10 05:37:23;;;;;;;;;;;;;;;20.42;43.28;100838.44;4959534;28;4066;-53
2022/04/10 05:39:54;;;;;;;;;;;;;;;20.41;43.28;100833.34;4971752;28;4232;-54
2022/04/10 05:42:22;;;;;;;;;;;;;;;20.42;43.17;100844.19;4973109;28;4222;-54
2022/04/10 05:44:49;;;;;;;;;;;;;;;20.42;43.33;100837.72;4978696;28;4219;-55
2022/04/10 05:47:15;;;;;;;;;;;;;;;20.43;43.23;100857.19;4971300;28;5532;-55
2022/04/10 05:49:42;;;;;;;;;;;;;;;20.43;43.26;100851.44;4973398;28;4254;-52
2022/04/10 05:52:09;;;;;;;;;;;;;;;20.45;43.14;100854.41;4971798;28;4225;-55
2022/04/10 05:54:36;;;;;;;;;;;;;;;20.46;43.21;100855.91;4974215;28;4248;-52
2022/04/10 05:57:03;;;;;;;;;;;;;;;20.48;43.29;100852.38;4975679;28;5505;-53
2022/04/10 05:59:30;;;;;;;;;;;;;;;20.46;43.27;100855.91;4972177;28;4184;-54
2022/04/10 06:01:58;;;;;;;;;;;;;;;20.47;43.28;100859.50;4959059;28;4242;-55
2022/04/10 06:04:25;;;;;;;;;;;;;;;20.45;43.35;100865.91;4974967;28;5311;-53
2022/04/10 06:06:52;;;;;;;;;;;;;;;20.46;43.38;100864.53;4973223;28;4266;-54
2022/04/10 06:09:27;;;;;;;;;;;;;;;20.45;43.51;100877.41;4957903;28;4184;-52
2022/04/10 06:11:54;;;;;;;;;;;;;;;20.46;43.35;100870.28;4975470;28;4079;-55
2022/04/10 06:14:22;;;;;;;;;;;;;;;20.47;43.34;100868.88;4973227;28;4154;-53
2022/04/10 06:16:49;;;;;;;;;;;;;;;20.46;43.42;100870.28;4973206;28;4306;-54
2022/04/10 06:19:19;;;;;;;;;;;;;;;20.48;43.38;100872.50;4972995;28;4465;-54
2022/04/10 06:21:47;;;;;;;;;;;;;;;20.45;43.43;100870.91;4970773;28;4268;-52
2022/04/10 06:24:13;;;;;;;;;;;;;;;20.48;43.42;100870.38;4971437;28;4263;-52
2022/04/10 06:26:44;;;;;;;;;;;;;;;20.44;43.50;100884.56;4975536;28;4269;-55
2022/04/10 06:29:11;;;;;;;;;;;;;;;20.45;43.43;100888.91;4974937;28;5199;-53
2022/04/10 06:31:51;;;;;;;;;;;;;;;20.44;43.42;100887.44;4974107;28;5307;-52
2022/04/10 06:34:21;;;;;;;;;;;;;;;20.44;43.41;100890.31;4974468;28;4059;-55
2022/04/10 06:36:47;;;;;;;;;;;;;;;20.44;43.39;100892.47;4972827;28;4097;-51
2022/04/10 06:39:17;;;;;;;;;;;;;;;20.45;43.23;100900.41;4975052;28;4176;-53
2022/04/10 06:41:45;;;;;;;;;;;;;;;20.46;43.22;100896.16;4973910;28;4211;-54
2022/04/10 06:44:21;;;;;;;;;;;;;;;20.46;43.16;100907.66;4973213;28;6703;-56
2022/04/10 06:47:07;;;;;;;;;;;;;;;20.47;43.31;100903.38;4975605;28;4277;-56
2022/04/10 06:49:35;;;;;;;;;;;;;;;20.47;43.25;100909.16;4976472;28;5324;-55
2022/04/10 06:52:02;;;;;;;;;;;;;;;20.45;43.41;100900.41;4961193;28;4090;-53
2022/04/10 06:54:34;;;;;;;;;;;;;;;20.47;43.16;100909.16;4971975;28;4223;-54
2022/04/10 06:57:01;;;;;;;;;;;;;;;20.49;43.15;100911.38;4950582;28;4103;-55
2022/04/10 06:59:27;;;;;;;;;;;;;;;20.49;43.04;100912.13;4969129;28;4238;-53
2022/04/10 07:01:55;;;;;;;;;;;;;;;20.49;43.17;100914.25;4969747;28;6442;-52
2022/04/10 07:04:22;;;;;;;;;;;;;;;20.48;43.15;100916.41;4956623;28;4221;-55
2022/04/10 07:06:48;;;;;;;;;;;;;;;20.44;43.21;100913.31;4969488;28;4259;-55
2022/04/10 07:09:15;;;;;;;;;;;;;;;20.47;43.13;100922.78;4966255;28;4172;-55
2022/04/10 07:11:41;;;;;;;;;;;;;;;20.45;43.08;100919.81;4955385;28;4262;-55
2022/04/10 07:14:19;;;;;;;;;;;;;;;20.42;43.06;100924.00;4969558;28;4299;-55
2022/04/10 07:16:45;;;;;;;;;;;;;;;20.41;43.05;100929.00;4950376;28;5297;-53
2022/04/10 07:19:12;;;;;;;;;;;;;;;20.40;43.13;100924.63;4966722;28;4953;-55
2022/04/10 07:24:24;;;;;;;;;;;;;;;20.41;43.06;100934.00;4957092;28;5427;-54
2022/04/10 07:26:55;;;;;;;;;;;;;;;20.42;43.03;100930.47;4967458;28;4098;-54
2022/04/10 07:29:27;;;;;;;;;;;;;;;20.42;42.99;100936.25;4972241;28;4394;-55
2022/04/10 07:31:53;;;;;;;;;;;;;;;20.39;42.99;100940.41;4967709;28;5626;-53
2022/04/10 07:34:20;;;;;;;;;;;;;;;20.42;43.63;100947.75;4964029;28;4353;-58
2022/04/10 07:36:58;;;;;;;;;;;;;;;20.42;43.33;100947.00;4952951;28;5703;-57
2022/04/10 07:39:31;;;;;;;;;;;;;;;17.90;40.25;100965.34;4968802;28;4207;-58
2022/04/10 07:42:10;;;;;;;;;;;;;;;17.37;39.63;100962.94;4971352;28;4336;-57
2022/04/10 07:44:59;;;;;;;;;;;;;;;17.15;38.53;100965.19;4955354;28;4064;-57
2022/04/10 07:47:40;;;;;;;;;;;;;;;17.57;38.03;100964.16;4968615;28;5702;-57
2022/04/10 07:50:06;;;;;;;;;;;;;;;17.28;37.59;100966.69;4952583;28;4396;-57
2022/04/10 07:52:33;;;;;;;;;;;;;;;17.10;37.40;100969.19;4971994;28;4977;-57
2022/04/10 07:55:05;;;;;;;;;;;;;;;16.92;37.28;100965.94;4969943;28;4992;-58
2022/04/10 07:57:36;;;;;;;;;;;;;;;16.71;36.79;100970.34;4956039;28;5563;-58
2022/04/10 08:00:03;;;;;;;;;;;;;;;16.50;37.32;100967.59;4970057;28;4178;-57
2022/04/10 08:02:52;;;;;;;;;;;;;;;16.16;37.52;100964.00;4967673;28;4265;-57
2022/04/10 08:05:29;;;;;;;;;;;;;;;16.17;37.51;100976.94;4969925;28;4345;-58
2022/04/10 08:08:10;;;;;;;;;;;;;;;16.15;37.62;100979.66;4949689;28;4290;-58
2022/04/10 08:10:37;;;;;;;;;;;;;;;15.37;37.95;100977.31;4958373;28;4036;-57
2022/04/10 08:13:03;;;;;;;;;;;;;;;15.76;37.96;100985.66;4955867;28;4060;-57
2022/04/10 08:15:29;;;;;;;;;;;;;;;15.06;38.03;100985.84;4960914;28;4249;-57
2022/04/10 08:17:56;;;;;;;;;;;;;;;15.93;37.73;100981.78;4956550;28;4089;-57
2022/04/10 08:20:23;;;;;;;;;;;;;;;16.85;36.42;100984.09;4959920;28;5382;-58
2022/04/10 08:22:49;;;;;;;;;;;;;;;17.28;36.21;100996.03;4961607;28;4232;-57
2022/04/10 08:25:18;;;;;;;;;;;;;;;17.48;36.25;100985.09;4959914;28;4046;-58
2022/04/10 08:27:44;;;;;;;;;;;;;;;17.69;36.08;100986.31;4958324;28;4052;-58
2022/04/10 08:30:12;;;;;;;;;;;;;;;17.87;35.76;100996.00;4959493;28;5151;-58
2022/04/10 08:32:39;;;;;;;;;;;;;;;18.04;36.62;100994.06;4960235;28;4384;-58
2022/04/10 08:35:06;;;;;;;;;;;;;;;18.15;36.81;100996.91;4957116;28;4107;-64
2022/04/10 08:37:33;;;;;;;;;;;;;;;18.35;36.82;101008.78;4958042;28;4203;-58
2022/04/10 08:39:59;;;;;;;;;;;;;;;18.41;37.03;101000.50;4957627;28;5336;-58
2022/04/10 08:42:25;;;;;;;;;;;;;;;18.37;37.27;100997.44;4960560;28;5253;-58
2022/04/10 08:44:53;;;;;;;;;;;;;;;18.46;37.56;101010.09;4955698;28;4158;-58
2022/04/10 08:47:20;;;;;;;;;;;;;;;18.54;37.51;101012.69;4968839;28;4147;-58
2022/04/10 08:49:47;;;;;;;;;;;;;;;18.61;37.77;101014.50;4957611;28;4086;-57
2022/04/10 08:52:14;;;;;;;;;;;;;;;18.60;37.18;101013.78;4949369;28;4258;-58
2022/04/10 08:54:41;;;;;;;;;;;;;;;18.59;37.70;101012.25;4972049;28;4194;-57
2022/04/10 08:57:07;;;;;;;;;;;;;;;18.71;37.80;101000.72;4970170;28;4193;-58
2022/04/10 08:59:34;;;;;;;;;;;;;;;18.79;37.92;101004.06;4958973;28;5363;-57
2022/04/10 09:02:00;;;;;;;;;;;;;;;18.88;38.01;101005.28;4959253;28;4209;-57
2022/04/10 09:04:27;;;;;;;;;;;;;;;18.96;38.23;101013.56;4959448;28;5156;-57
2022/04/10 09:07:02;;;;;;;;;;;;;;;19.02;38.31;101016.78;4960065;28;4255;-57
2022/04/10 09:09:29;;;;;;;;;;;;;;;19.08;38.51;101008.50;4956695;28;4181;-59
2022/04/10 09:11:55;;;;;;;;;;;;;;;19.14;38.47;101016.69;4960227;28;4242;-58
2022/04/10 09:14:29;;;;;;;;;;;;;;;19.19;38.71;101015.53;4958746;28;4327;-58
2022/04/10 09:17:15;;;;;;;;;;;;;;;19.23;38.86;101016.47;4960536;28;4073;-57
2022/04/10 09:19:43;;;;;;;;;;;;;;;19.27;39.21;101021.72;4960338;28;5498;-57
2022/04/10 09:22:21;;;;;;;;;;;;;;;19.31;38.92;101018.28;4959169;28;4431;-57
2022/04/10 09:25:00;;;;;;;;;;;;;;;19.36;38.97;101022.91;4955387;28;4104;-57
2022/04/10 09:27:38;;;;;;;;;;;;;;;19.42;39.10;101028.94;4951719;28;4178;-58
2022/04/10 09:30:05;;;;;;;;;;;;;;;19.45;39.34;101031.28;4958284;28;4644;-57
2022/04/10 09:32:37;;;;;;;;;;;;;;;19.52;39.29;101040.25;4955265;28;4208;-57
2022/04/10 09:35:04;;;;;;;;;;;;;;;19.56;39.22;101032.59;4951494;28;4361;-57
2022/04/10 09:37:32;;;;;;;;;;;;;;;19.59;39.17;101034.16;4951021;28;4299;-59
2022/04/10 09:40:24;;;;;;;;;;;;;;;19.65;39.18;101037.38;4956895;28;5261;-61
2022/04/10 09:42:57;;;;;;;;;;;;;;;19.58;39.34;101026.19;4950938;28;4091;-59
2022/04/10 09:45:30;;;;;;;;;;;;;;;19.59;39.16;101039.91;4955191;28;5507;-59
2022/04/10 09:47:57;;;;;;;;;;;;;;;19.59;39.01;101037.03;4958337;28;4321;-58
2022/04/10 09:50:31;;;;;;;;;;;;;;;19.60;39.11;101035.63;4959658;28;4009;-58
2022/04/10 09:52:58;;;;;;;;;;;;;;;19.67;39.06;101039.56;4956859;28;4103;-59
2022/04/10 09:55:34;;;;;;;;;;;;;;;19.66;39.04;101038.84;4978265;28;5364;-59
2022/04/10 09:58:01;;;;;;;;;;;;;;;19.70;39.06;101026.09;4978125;28;4142;-58
2022/04/10 10:00:27;;;;;;;;;;;;;;;19.72;39.01;101018.31;4975677;28;4138;-58
2022/04/10 10:02:54;;;;;;;;;;;;;;;19.72;38.98;101020.44;4979700;28;4079;-58
2022/04/10 10:05:20;;;;;;;;;;;;;;;19.73;38.94;101019.09;4979204;28;4076;-58
2022/04/10 10:07:48;;;;;;;;;;;;;;;19.76;38.84;101012.03;4975288;28;4277;-59
2022/04/10 10:10:17;;;;;;;;;;;;;;;19.77;38.91;101013.53;4978463;28;4177;-58
2022/04/10 10:12:44;;;;;;;;;;;;;;;19.79;38.88;101019.38;4974175;28;4112;-58
2022/04/10 10:15:11;;;;;;;;;;;;;;;19.81;38.89;101019.47;4976781;28;4009;-58
2022/04/10 10:17:37;;;;;;;;;;;;;;;19.80;38.85;101023.75;4976896;28;4078;-58
2022/04/10 10:20:04;;;;;;;;;;;;;;;19.82;38.91;101015.25;4980358;28;4106;-58
2022/04/10 10:22:31;;;;;;;;;;;;;;;19.83;38.85;101019.59;4978614;28;4088;-58
2022/04/10 10:24:59;;;;;;;;;;;;;;;19.84;38.93;101021.84;4975933;28;4247;-58
2022/04/10 10:27:29;;;;;;;;;;;;;;;19.84;38.93;101024.69;4978846;28;4115;-59
2022/04/10 10:30:18;;;;;;;;;;;;;;;19.87;38.94;101019.81;4974842;28;4043;-59
2022/04/10 10:32:48;;;;;;;;;;;;;;;19.87;38.86;101022.69;4978646;28;4162;-59
2022/04/10 10:35:33;;;;;;;;;;;;;;;19.86;38.99;101015.44;4976064;28;4346;-59
2022/04/10 10:38:02;;;;;;;;;;;;;;;19.90;38.84;101015.63;4979488;28;4253;-58
2022/04/10 10:40:29;;;;;;;;;;;;;;;19.90;38.88;101023.53;4977674;28;5497;-58
2022/04/10 10:42:57;;;;;;;;;;;;;;;19.88;38.83;101021.28;4978226;28;3961;-59
2022/04/10 10:45:33;;;;;;;;;;;;;;;19.87;38.91;101016.94;4976894;28;4182;-59
2022/04/10 10:48:18;;;;;;;;;;;;;;;19.87;38.96;101017.66;4977559;28;4159;-59
2022/04/10 10:50:44;;;;;;;;;;;;;;;19.87;38.88;101016.94;4977329;28;4179;-58
2022/04/10 10:53:11;;;;;;;;;;;;;;;19.86;39.02;101015.44;4977626;28;4397;-59
2022/04/10 10:55:48;;;;;;;;;;;;;;;19.86;39.04;101021.19;4977839;28;4427;-59
2022/04/10 10:58:15;;;;;;;;;;;;;;;19.84;39.11;101006.72;4978254;28;4104;-59
2022/04/10 11:00:43;;;;;;;;;;;;;;;19.83;39.01;101008.09;4977394;28;4050;-58
2022/04/10 11:03:10;;;;;;;;;;;;;;;19.83;39.11;101019.59;4977905;28;4226;-59
2022/04/10 11:05:36;;;;;;;;;;;;;;;19.82;39.21;101021.00;4976057;28;4226;-59
2022/04/10 11:08:04;;;;;;;;;;;;;;;19.81;39.18;101025.22;4976543;28;4138;-59
2022/04/10 11:10:31;;;;;;;;;;;;;;;19.80;39.13;101013.00;4978159;28;4400;-59
2022/04/10 11:13:05;;;;;;;;;;;;;;;19.79;39.11;101020.16;4979408;28;4128;-59
2022/04/10 11:15:32;;;;;;;;;;;;;;;19.79;39.19;101019.38;4976249;28;4276;-59
2022/04/10 11:18:18;;;;;;;;;;;;;;;19.79;39.24;101017.28;4976085;28;4172;-59
2022/04/10 11:20:54;;;;;;;;;;;;;;;19.78;39.22;101015.03;4977240;28;4205;-59
2022/04/10 11:23:21;;;;;;;;;;;;;;;19.76;39.41;101024.28;4976451;28;4254;-59
2022/04/10 11:25:48;;;;;;;;;;;;;;;19.75;39.49;101022.81;4975013;28;4154;-59
2022/04/10 11:28:14;;;;;;;;;;;;;;;19.74;39.42;101020.56;4977221;28;4275;-59
2022/04/10 11:30:41;;;;;;;;;;;;;;;19.73;39.42;101021.94;4979894;28;4228;-59
2022/04/10 11:33:08;;;;;;;;;;;;;;;19.72;39.41;101017.56;4975166;28;4019;-59
2022/04/10 11:35:41;;;;;;;;;;;;;;;19.72;39.36;101024.06;4976753;28;4180;-59
2022/04/10 11:38:12;;;;;;;;;;;;;;;19.71;39.44;101018.97;4976697;28;4169;-60
2022/04/10 11:40:39;;;;;;;;;;;;;;;19.71;39.40;101027.59;4976628;28;4177;-59
2022/04/10 11:43:08;;;;;;;;;;;;;;;19.70;39.53;101026.09;4978340;28;4413;-59
2022/04/10 11:45:34;;;;;;;;;;;;;;;19.69;39.57;101036.09;4977974;28;4293;-59
2022/04/10 11:48:01;;;;;;;;;;;;;;;19.70;39.54;101037.59;4977485;28;5246;-59
2022/04/10 11:50:28;;;;;;;;;;;;;;;19.67;39.58;101040.31;4979419;28;4171;-59
2022/04/10 11:52:58;;;;;;;;;;;;;;;19.67;39.60;101028.81;4980288;28;4221;-59
2022/04/10 11:55:27;;;;;;;;;;;;;;;19.67;39.54;101033.84;4982397;28;4220;-59
2022/04/10 11:57:54;;;;;;;;;;;;;;;19.66;39.63;101038.84;4981381;28;4101;-59
2022/04/10 12:00:20;;;;;;;;;;;;;;;19.65;39.74;101043.09;4979457;28;4187;-59
2022/04/10 12:02:52;;;;;;;;;;;;;;;19.63;39.72;101034.38;4982033;28;4351;-59
2022/04/10 12:05:26;;;;;;;;;;;;;;;19.65;39.67;101037.38;4980137;28;4182;-59
2022/04/10 12:08:01;;;;;;;;;;;;;;;19.64;39.68;101033.00;4981590;28;4262;-59
2022/04/10 12:10:28;;;;;;;;;;;;;;;19.64;39.68;101030.13;4980017;28;5771;-59
2022/04/10 12:12:54;;;;;;;;;;;;;;;19.65;39.67;101036.59;4982261;28;6391;-58
2022/04/10 12:15:21;;;;;;;;;;;;;;;19.64;39.75;101030.13;4978480;28;4212;-59
2022/04/10 12:17:47;;;;;;;;;;;;;;;19.63;39.66;101045.88;4981217;28;4258;-59
2022/04/10 12:20:33;;;;;;;;;;;;;;;19.63;39.64;101039.38;4982683;28;4169;-59
2022/04/10 12:22:59;;;;;;;;;;;;;;;19.63;39.71;101039.38;4979507;28;4195;-59
2022/04/10 12:25:26;;;;;;;;;;;;;;;19.63;39.65;101034.38;4980310;28;4057;-59
2022/04/10 12:27:52;;;;;;;;;;;;;;;19.64;39.64;101038.00;4980008;28;4198;-58
2022/04/10 12:30:21;;;;;;;;;;;;;;;19.62;39.72;101032.88;4978874;28;6447;-59
2022/04/10 12:32:47;;;;;;;;;;;;;;;19.62;39.75;101032.88;4978399;28;4270;-59
2022/04/10 12:35:14;;;;;;;;;;;;;;;19.62;39.68;101032.88;4976825;28;5425;-59
2022/04/10 12:37:44;;;;;;;;;;;;;;;19.62;39.72;101030.00;4979074;28;4089;-59
2022/04/10 12:40:10;;;;;;;;;;;;;;;19.63;39.68;101031.50;4978876;28;4329;-59
2022/04/10 12:42:37;;;;;;;;;;;;;;;19.63;39.78;101040.13;4979301;28;4194;-59
2022/04/10 12:45:05;;;;;;;;;;;;;;;19.64;39.76;101032.25;4980520;28;6502;-59
2022/04/10 12:47:39;;;;;;;;;;;;;;;19.62;39.81;101035.75;4981101;28;4159;-59
2022/04/10 12:50:06;;;;;;;;;;;;;;;19.63;39.72;101040.13;4979777;28;4321;-59
2022/04/10 12:52:32;;;;;;;;;;;;;;;19.63;39.88;101039.38;4981276;28;4306;-59
2022/04/10 12:55:00;;;;;;;;;;;;;;;19.63;39.81;101045.09;4982032;28;4163;-59
2022/04/10 12:57:27;;;;;;;;;;;;;;;19.63;39.91;101051.63;4979222;28;4214;-59